Time;durP1;ratioP1;P1;durP2;ratioP2;P2;SDS_P1;SDS_P2;PMS_P1;PMS_P2;Temp;Humidity;BMP_temperature;BMP_pressure;BME280_temperature;BME280_humidity;BME280_pressure;Samples;Min_cycle;Max_cycle;Signal;HPM_P1;HPM_P2
2023/12/28 00:02:31;;;;;;;11.55;4.10;;;;;;;;;;4880612;29;20061;-84
2023/12/28 00:05:01;;;;;;;13.43;4.70;;;;;;;;;;4862436;29;20397;-83
2023/12/28 00:07:33;;;;;;;15.52;6.30;;;;;;;;;;4876283;29;20417;-83
2023/12/28 00:10:04;;;;;;;12.57;4.45;;;;;;;;;;4876916;29;20053;-83
2023/12/28 00:12:35;;;;;;;33.00;16.75;;;;;;;;;;4877301;29;20136;-85
2023/12/28 00:15:05;;;;;;;44.30;23.58;;;;;;;;;;4863863;29;20065;-82
2023/12/28 00:17:35;;;;;;;24.75;9.25;;;;;;;;;;4845078;29;20493;-82
2023/12/28 00:20:06;;;;;;;15.15;6.60;;;;;;;;;;4879152;29;20068;-82
2023/12/28 00:22:39;;;;;;;15.35;6.53;;;;;;;;;;4844460;29;20057;-82
2023/12/28 00:25:11;;;;;;;23.95;12.68;;;;;;;;;;4870618;29;20061;-83
2023/12/28 00:27:41;;;;;;;24.30;11.38;;;;;;;;;;4875150;29;20128;-82
2023/12/28 00:30:11;;;;;;;19.63;9.13;;;;;;;;;;4857808;29;20058;-85
2023/12/28 00:32:44;;;;;;;24.83;12.65;;;;;;;;;;4860702;29;20045;-81
2023/12/28 00:35:14;;;;;;;16.27;8.07;;;;;;;;;;4860810;29;20066;-81
2023/12/28 00:37:44;;;;;;;13.70;4.82;;;;;;;;;;4858671;29;20062;-81
2023/12/28 00:40:14;;;;;;;12.18;5.18;;;;;;;;;;4858557;29;20053;-82
2023/12/28 00:42:44;;;;;;;12.20;4.60;;;;;;;;;;4858979;29;20065;-82
2023/12/28 00:45:14;;;;;;;15.23;4.80;;;;;;;;;;4859633;29;20057;-82
2023/12/28 00:47:45;;;;;;;14.63;4.75;;;;;;;;;;4828931;29;20425;-81
2023/12/28 00:50:15;;;;;;;17.48;5.47;;;;;;;;;;4858620;29;20056;-81
2023/12/28 00:52:45;;;;;;;16.83;6.47;;;;;;;;;;4873976;29;20062;-82
2023/12/28 00:55:16;;;;;;;14.88;7.07;;;;;;;;;;4844806;29;20057;-82
2023/12/28 00:57:48;;;;;;;17.73;6.60;;;;;;;;;;4874677;29;20061;-81
2023/12/28 01:00:18;;;;;;;17.83;7.93;;;;;;;;;;4874808;29;20049;-83
2023/12/28 01:02:49;;;;;;;25.42;11.90;;;;;;;;;;4858862;29;20429;-81
2023/12/28 01:05:20;;;;;;;19.17;10.70;;;;;;;;;;4859103;29;20061;-81
2023/12/28 01:07:51;;;;;;;22.25;12.38;;;;;;;;;;4858269;29;20069;-81
2023/12/28 01:10:22;;;;;;;17.67;8.48;;;;;;;;;;4860596;29;20060;-82
2023/12/28 01:12:53;;;;;;;18.92;9.98;;;;;;;;;;4858738;29;20057;-83
2023/12/28 01:15:22;;;;;;;15.75;5.57;;;;;;;;;;4858415;29;20062;-81
2023/12/28 01:17:52;;;;;;;20.90;8.70;;;;;;;;;;4859864;29;20061;-81
2023/12/28 01:20:23;;;;;;;23.20;11.65;;;;;;;;;;4860212;29;20057;-81
2023/12/28 01:22:53;;;;;;;38.75;18.35;;;;;;;;;;4859714;29;20061;-82
2023/12/28 01:25:23;;;;;;;24.15;11.23;;;;;;;;;;4860105;29;20050;-82
2023/12/28 01:27:54;;;;;;;19.30;8.52;;;;;;;;;;4859478;29;20069;-87
2023/12/28 01:30:26;;;;;;;20.88;8.65;;;;;;;;;;4858851;29;20037;-82
2023/12/28 01:32:56;;;;;;;16.15;6.47;;;;;;;;;;4857704;29;20506;-82
2023/12/28 01:35:27;;;;;;;17.00;7.53;;;;;;;;;;4859026;29;20049;-82
2023/12/28 01:38:00;;;;;;;17.05;5.85;;;;;;;;;;4857484;29;20083;-82
2023/12/28 01:40:30;;;;;;;;;;;;;;;;;;4860675;29;20046;-84
2023/12/28 01:43:00;;;;;;;18.05;7.03;;;;;;;;;;4858823;29;19931;-84
2023/12/28 01:45:30;;;;;;;12.18;4.60;;;;;;;;;;4858403;29;20069;-85
2023/12/28 01:48:01;;;;;;;14.57;4.93;;;;;;;;;;4858435;29;20068;-82
2023/12/28 01:50:33;;;;;;;10.65;4.40;;;;;;;;;;4857907;29;20060;-83
2023/12/28 01:53:04;;;;;;;14.13;4.60;;;;;;;;;;4859528;29;20054;-81
2023/12/28 01:55:35;;;;;;;13.00;4.13;;;;;;;;;;4859682;29;20053;-83
2023/12/28 01:58:05;;;;;;;14.35;4.35;;;;;;;;;;4857585;29;20054;-85
2023/12/28 02:00:38;;;;;;;16.77;5.60;;;;;;;;;;4857963;29;20390;-82
2023/12/28 02:03:10;;;;;;;10.38;4.38;;;;;;;;;;4873647;29;20065;-82
2023/12/28 02:05:41;;;;;;;8.48;3.42;;;;;;;;;;4857545;29;20068;-82
2023/12/28 02:08:11;;;;;;;13.63;4.38;;;;;;;;;;4857300;29;20054;-82
2023/12/28 02:10:41;;;;;;;9.15;3.63;;;;;;;;;;4839338;29;20057;-81
2023/12/28 02:13:12;;;;;;;10.32;3.30;;;;;;;;;;4824519;29;20498;-85
2023/12/28 02:15:50;;;;;;;10.90;4.32;;;;;;;;;;4839043;29;20054;-82
2023/12/28 02:18:25;;;;;;;11.40;3.97;;;;;;;;;;4840887;29;20050;-82
2023/12/28 02:21:00;;;;;;;11.13;3.97;;;;;;;;;;4854408;29;20050;-82
2023/12/28 02:23:33;;;;;;;8.02;3.30;;;;;;;;;;4855106;29;20510;-81
2023/12/28 02:26:05;;;;;;;15.55;4.35;;;;;;;;;;4839452;29;20050;-82
2023/12/28 02:28:35;;;;;;;8.45;2.95;;;;;;;;;;4840819;29;20076;-83
2023/12/28 02:31:08;;;;;;;8.85;3.45;;;;;;;;;;4838855;29;20072;-81
2023/12/28 02:34:00;;;;;;;8.32;3.22;;;;;;;;;;4854222;29;20057;-82
2023/12/28 02:36:35;;;;;;;10.57;3.42;;;;;;;;;;4839325;29;20064;-82
2023/12/28 02:39:12;;;;;;;13.05;3.80;;;;;;;;;;4840095;29;20053;-82
2023/12/28 02:41:44;;;;;;;8.00;3.15;;;;;;;;;;4857217;29;20061;-83
2023/12/28 02:44:15;;;;;;;11.20;3.03;;;;;;;;;;4873204;29;20080;-82
2023/12/28 02:46:45;;;;;;;7.53;2.92;;;;;;;;;;4857379;29;20068;-83
2023/12/28 02:49:16;;;;;;;7.60;2.90;;;;;;;;;;4842259;29;20053;-83
2023/12/28 02:51:47;;;;;;;14.38;5.25;;;;;;;;;;4857282;29;20386;-85
2023/12/28 02:54:18;;;;;;;8.82;3.72;;;;;;;;;;4841939;29;20065;-82
2023/12/28 02:56:50;;;;;;;12.40;4.00;;;;;;;;;;4858409;29;20069;-81
2023/12/28 02:59:20;;;;;;;8.70;4.03;;;;;;;;;;4842398;29;20064;-84
2023/12/28 03:01:50;;;;;;;7.85;3.35;;;;;;;;;;4856545;29;20058;-82
2023/12/28 03:04:21;;;;;;;24.60;3.75;;;;;;;;;;4872186;29;20053;-83
2023/12/28 03:06:53;;;;;;;14.40;4.32;;;;;;;;;;4857418;29;20512;-83
2023/12/28 03:09:23;;;;;;;9.55;3.45;;;;;;;;;;4842231;29;20071;-82
2023/12/28 03:11:53;;;;;;;11.90;3.22;;;;;;;;;;4841105;29;20072;-81
2023/12/28 03:14:23;;;;;;;8.25;2.50;;;;;;;;;;4856757;29;20054;-82
2023/12/28 03:16:53;;;;;;;12.25;2.90;;;;;;;;;;4858375;29;20068;-81
2023/12/28 03:19:23;;;;;;;9.45;3.13;;;;;;;;;;4842284;29;20061;-81
2023/12/28 03:21:54;;;;;;;6.93;2.83;;;;;;;;;;4858477;29;20497;-81
2023/12/28 03:24:25;;;;;;;6.88;2.90;;;;;;;;;;4857744;29;20053;-81
2023/12/28 03:26:55;;;;;;;7.88;3.15;;;;;;;;;;4858588;29;20061;-81
2023/12/28 03:29:27;;;;;;;6.22;2.65;;;;;;;;;;4858932;29;20532;-82
2023/12/28 03:31:57;;;;;;;10.38;2.88;;;;;;;;;;4858223;29;20509;-83
2023/12/28 03:34:29;;;;;;;7.25;2.50;;;;;;;;;;4858748;29;20050;-82
2023/12/28 03:37:00;;;;;;;12.45;2.90;;;;;;;;;;4858578;29;20045;-82
2023/12/28 03:39:30;;;;;;;9.35;2.42;;;;;;;;;;4841708;29;20053;-82
2023/12/28 03:42:00;;;;;;;9.45;2.75;;;;;;;;;;4840034;29;20042;-84
2023/12/28 03:44:31;;;;;;;8.05;2.58;;;;;;;;;;4823726;29;20422;-83
2023/12/28 03:47:01;;;;;;;9.70;2.80;;;;;;;;;;4822935;29;20066;-81
2023/12/28 03:49:31;;;;;;;9.75;2.55;;;;;;;;;;4822914;29;20061;-82
2023/12/28 03:52:01;;;;;;;7.28;3.75;;;;;;;;;;4840019;29;20413;-82
2023/12/28 03:54:31;;;;;;;4.97;2.47;;;;;;;;;;4826308;29;20066;-81
2023/12/28 03:57:01;;;;;;;8.25;2.40;;;;;;;;;;4827254;29;20054;-81
2023/12/28 03:59:31;;;;;;;8.95;2.95;;;;;;;;;;4826190;29;20058;-81
2023/12/28 04:02:03;;;;;;;5.85;2.35;;;;;;;;;;4825919;29;20073;-85
2023/12/28 04:04:34;;;;;;;8.00;2.65;;;;;;;;;;4841978;29;20058;-82
2023/12/28 04:07:08;;;;;;;6.95;2.55;;;;;;;;;;4851421;29;20501;-82
2023/12/28 04:09:39;;;;;;;6.75;2.40;;;;;;;;;;4864136;29;20045;-81
2023/12/28 04:12:09;;;;;;;12.32;3.15;;;;;;;;;;4861163;29;20064;-82
2023/12/28 04:14:40;;;;;;;10.18;2.22;;;;;;;;;;4846623;29;20505;-82
2023/12/28 04:17:09;;;;;;;6.47;2.60;;;;;;;;;;4863585;29;20474;-83
2023/12/28 04:19:40;;;;;;;10.43;3.40;;;;;;;;;;4863140;29;20409;-82
2023/12/28 04:22:10;;;;;;;7.38;2.40;;;;;;;;;;4846004;29;20060;-82
2023/12/28 04:24:40;;;;;;;6.45;2.72;;;;;;;;;;4845364;29;20053;-81
2023/12/28 04:27:12;;;;;;;6.78;2.78;;;;;;;;;;4877502;29;20057;-86
2023/12/28 04:29:50;;;;;;;7.03;2.70;;;;;;;;;;4848439;29;20049;-82
2023/12/28 04:33:28;;;;;;;6.88;2.70;;;;;;;;;;4860671;29;20054;-88
2023/12/28 04:48:55;;;;;;;5.80;2.22;;;;;;;;;;4861614;29;20485;-80
2023/12/28 04:51:27;;;;;;;5.93;2.40;;;;;;;;;;4844736;29;20064;-82
2023/12/28 04:53:57;;;;;;;9.45;2.83;;;;;;;;;;4845494;29;20076;-81
2023/12/28 04:56:27;;;;;;;5.90;2.88;;;;;;;;;;4845138;29;20058;-80
2023/12/28 04:58:59;;;;;;;7.18;2.70;;;;;;;;;;4861290;29;20046;-81
2023/12/28 05:01:32;;;;;;;10.80;3.22;;;;;;;;;;4845828;29;20053;-83
2023/12/28 05:04:03;;;;;;;8.50;3.45;;;;;;;;;;4845406;29;20049;-81
2023/12/28 05:06:35;;;;;;;8.50;3.38;;;;;;;;;;4845151;29;20057;-82
2023/12/28 05:09:05;;;;;;;9.10;3.60;;;;;;;;;;4859558;29;20158;-82
2023/12/28 05:11:36;;;;;;;11.80;3.78;;;;;;;;;;4845705;29;20064;-82
2023/12/28 05:14:06;;;;;;;10.35;3.85;;;;;;;;;;4862578;29;20076;-82
2023/12/28 05:16:39;;;;;;;9.13;3.88;;;;;;;;;;4847023;29;20381;-84
2023/12/28 05:19:10;;;;;;;6.88;2.88;;;;;;;;;;4862742;29;20053;-83
2023/12/28 05:21:40;;;;;;;9.02;2.90;;;;;;;;;;4860571;29;20060;-85
2023/12/28 05:24:11;;;;;;;6.85;2.72;;;;;;;;;;4861952;29;20485;-82
2023/12/28 05:26:42;;;;;;;9.50;3.35;;;;;;;;;;4860042;29;20058;-83
2023/12/28 05:29:12;;;;;;;9.60;3.45;;;;;;;;;;4861473;29;20049;-82
2023/12/28 05:31:42;;;;;;;8.93;3.53;;;;;;;;;;4861521;29;20065;-81
2023/12/28 05:34:13;;;;;;;6.97;3.20;;;;;;;;;;4860399;29;20049;-83
2023/12/28 05:36:45;;;;;;;10.57;3.30;;;;;;;;;;4845113;29;20064;-83
2023/12/28 05:39:15;;;;;;;;;;;;;;;;;;4884211;29;20046;-81
2023/12/28 05:41:47;;;;;;;9.13;2.70;;;;;;;;;;4870527;29;19924;-86
2023/12/28 05:44:17;;;;;;;7.35;2.55;;;;;;;;;;4871167;29;20053;-81
2023/12/28 05:46:48;;;;;;;9.07;3.78;;;;;;;;;;4884918;29;20044;-83
2023/12/28 05:49:19;;;;;;;7.43;2.70;;;;;;;;;;4884804;29;20072;-81
2023/12/28 05:51:49;;;;;;;15.95;3.00;;;;;;;;;;4885424;29;20030;-83
2023/12/28 05:54:19;;;;;;;9.23;2.63;;;;;;;;;;4868305;29;20053;-83
2023/12/28 05:56:50;;;;;;;11.00;3.13;;;;;;;;;;4845636;29;20062;-82
2023/12/28 05:59:21;;;;;;;9.52;3.03;;;;;;;;;;4862021;29;20049;-81
2023/12/28 06:01:52;;;;;;;8.02;3.20;;;;;;;;;;4862577;29;20049;-83
2023/12/28 06:04:22;;;;;;;8.65;3.13;;;;;;;;;;4845195;29;20053;-82
2023/12/28 06:06:52;;;;;;;7.90;2.60;;;;;;;;;;4845628;29;20049;-81
2023/12/28 06:09:22;;;;;;;7.03;2.53;;;;;;;;;;4860536;29;20057;-81
2023/12/28 06:11:52;;;;;;;9.65;2.40;;;;;;;;;;4844947;29;20054;-82
2023/12/28 06:14:22;;;;;;;6.63;2.90;;;;;;;;;;4844331;29;20061;-82
2023/12/28 06:16:52;;;;;;;10.65;2.50;;;;;;;;;;4859965;29;20060;-87
2023/12/28 06:19:22;;;;;;;5.03;2.25;;;;;;;;;;4861214;29;20050;-81
2023/12/28 06:21:54;;;;;;;6.20;2.50;;;;;;;;;;4861521;29;20049;-83
2023/12/28 06:24:25;;;;;;;5.57;2.30;;;;;;;;;;4845193;29;20053;-82
2023/12/28 06:26:55;;;;;;;10.30;2.28;;;;;;;;;;4875434;29;20520;-85
2023/12/28 06:29:25;;;;;;;8.85;2.13;;;;;;;;;;4844116;29;20053;-85
2023/12/28 06:31:54;;;;;;;7.93;2.00;;;;;;;;;;4861924;29;20041;-84
2023/12/28 06:34:25;;;;;;;9.32;3.25;;;;;;;;;;4844021;29;20063;-84
2023/12/28 06:36:56;;;;;;;8.02;2.80;;;;;;;;;;4860359;29;20069;-81
2023/12/28 06:39:26;;;;;;;6.95;2.55;;;;;;;;;;4875314;29;20068;-84
2023/12/28 06:41:59;;;;;;;6.30;3.08;;;;;;;;;;4861057;29;20338;-83
2023/12/28 06:44:29;;;;;;;6.40;2.50;;;;;;;;;;4861289;29;20050;-85
2023/12/28 06:47:01;;;;;;;8.85;3.10;;;;;;;;;;4861246;29;20045;-83
2023/12/28 06:49:33;;;;;;;7.45;2.70;;;;;;;;;;4843865;29;20056;-83
2023/12/28 06:52:04;;;;;;;16.83;3.10;;;;;;;;;;4861438;29;20050;-83
2023/12/28 06:54:34;;;;;;;13.63;2.90;;;;;;;;;;4861108;29;20049;-84
2023/12/28 06:57:04;;;;;;;8.23;3.20;;;;;;;;;;4843788;29;20061;-85
2023/12/28 06:59:35;;;;;;;7.60;2.80;;;;;;;;;;4846276;29;20054;-82
2023/12/28 07:02:06;;;;;;;7.78;3.10;;;;;;;;;;4864295;29;20058;-85
2023/12/28 07:04:39;;;;;;;13.27;2.53;;;;;;;;;;4859821;29;20049;-83
2023/12/28 07:07:09;;;;;;;9.98;2.25;;;;;;;;;;4858508;29;20050;-85
2023/12/28 07:09:40;;;;;;;7.13;2.45;;;;;;;;;;4860992;29;20049;-82
2023/12/28 07:12:09;;;;;;;9.70;3.22;;;;;;;;;;4859393;29;20056;-82
2023/12/28 07:14:40;;;;;;;8.68;3.75;;;;;;;;;;4843980;29;20062;-83
2023/12/28 07:17:17;;;;;;;9.93;3.90;;;;;;;;;;4874505;29;20054;-82
2023/12/28 07:19:47;;;;;;;8.95;3.70;;;;;;;;;;4860562;29;20049;-83
2023/12/28 07:22:17;;;;;;;13.75;4.80;;;;;;;;;;4860515;29;20050;-85
2023/12/28 07:24:47;;;;;;;12.30;3.60;;;;;;;;;;4859138;29;20058;-82
2023/12/28 07:27:17;;;;;;;8.35;3.55;;;;;;;;;;4862771;29;20054;-82
2023/12/28 07:29:47;;;;;;;10.27;3.33;;;;;;;;;;4878385;29;20069;-86
2023/12/28 07:32:19;;;;;;;8.75;3.40;;;;;;;;;;4847384;29;20061;-83
2023/12/28 07:34:50;;;;;;;11.25;4.18;;;;;;;;;;4864561;29;20049;-82
2023/12/28 07:37:20;;;;;;;13.60;3.72;;;;;;;;;;4863722;29;20489;-86
2023/12/28 07:39:52;;;;;;;9.77;4.07;;;;;;;;;;4864768;29;20060;-83
2023/12/28 07:42:22;;;;;;;10.65;4.70;;;;;;;;;;4864359;29;20378;-83
2023/12/28 07:44:53;;;;;;;11.82;4.32;;;;;;;;;;4847582;29;20053;-83
2023/12/28 07:47:23;;;;;;;10.35;4.43;;;;;;;;;;4864640;29;20049;-82
2023/12/28 07:49:53;;;;;;;10.35;4.20;;;;;;;;;;4847337;29;20058;-85
2023/12/28 07:52:24;;;;;;;8.80;3.95;;;;;;;;;;4832073;29;20409;-83
2023/12/28 07:54:54;;;;;;;14.57;3.97;;;;;;;;;;4862339;29;20057;-82
2023/12/28 07:57:24;;;;;;;9.82;3.10;;;;;;;;;;4863832;29;20049;-83
2023/12/28 07:59:54;;;;;;;7.93;2.75;;;;;;;;;;4863744;29;20485;-85
2023/12/28 08:02:24;;;;;;;6.35;2.80;;;;;;;;;;4861922;29;20493;-82
2023/12/28 08:04:54;;;;;;;11.90;4.20;;;;;;;;;;4862663;29;20053;-83
2023/12/28 08:07:25;;;;;;;9.70;3.35;;;;;;;;;;4863592;29;20061;-88
2023/12/28 08:09:56;;;;;;;10.90;4.05;;;;;;;;;;4877676;29;20490;-81
2023/12/28 08:12:27;;;;;;;9.90;3.65;;;;;;;;;;4847224;29;20079;-84
2023/12/28 08:15:00;;;;;;;10.35;3.30;;;;;;;;;;4861588;29;20061;-84
2023/12/28 08:17:30;;;;;;;8.50;3.53;;;;;;;;;;4847739;29;20060;-83
2023/12/28 08:20:00;;;;;;;6.10;3.03;;;;;;;;;;4877176;29;20057;-83
2023/12/28 08:22:31;;;;;;;6.50;2.75;;;;;;;;;;4846381;29;20409;-83
2023/12/28 08:25:00;;;;;;;6.78;2.63;;;;;;;;;;4863266;29;20052;-86
2023/12/28 08:27:30;;;;;;;6.90;2.63;;;;;;;;;;4861067;29;20064;-82
2023/12/28 08:30:04;;;;;;;;;;;;;;;;;;4861628;29;20053;-83
2023/12/28 08:32:35;;;;;;;11.25;4.15;;;;;;;;;;4876718;29;20307;-82
2023/12/28 08:35:06;;;;;;;10.13;4.00;;;;;;;;;;4863332;29;20060;-82
2023/12/28 08:37:36;;;;;;;9.65;3.70;;;;;;;;;;4844820;29;20057;-82
2023/12/28 08:40:07;;;;;;;11.95;3.90;;;;;;;;;;4863004;29;20504;-82
2023/12/28 08:42:37;;;;;;;13.70;4.80;;;;;;;;;;4863399;29;20057;-82
2023/12/28 08:45:08;;;;;;;13.45;4.97;;;;;;;;;;4861083;29;20057;-87
2023/12/28 08:47:39;;;;;;;10.90;4.93;;;;;;;;;;4861241;29;20413;-82
2023/12/28 08:50:11;;;;;;;12.82;4.50;;;;;;;;;;4862892;29;20061;-82
2023/12/28 08:52:44;;;;;;;11.25;4.30;;;;;;;;;;4861052;29;20057;-87
2023/12/28 08:55:14;;;;;;;13.82;3.75;;;;;;;;;;4846085;29;20061;-84
2023/12/28 08:57:44;;;;;;;13.20;3.85;;;;;;;;;;4862854;29;20057;-84
2023/12/28 09:00:16;;;;;;;9.18;3.30;;;;;;;;;;4877028;29;20413;-82
2023/12/28 09:02:47;;;;;;;9.18;2.83;;;;;;;;;;4862747;29;20049;-83
2023/12/28 09:05:18;;;;;;;9.60;3.05;;;;;;;;;;4861960;29;20053;-82
2023/12/28 09:07:49;;;;;;;6.13;2.90;;;;;;;;;;4845584;29;20054;-81
2023/12/28 09:10:19;;;;;;;7.15;3.42;;;;;;;;;;4861386;29;20049;-83
2023/12/28 09:12:50;;;;;;;9.10;3.40;;;;;;;;;;4830805;29;20053;-83
2023/12/28 09:15:22;;;;;;;11.45;3.90;;;;;;;;;;4846095;29;20046;-87
2023/12/28 09:17:51;;;;;;;8.85;3.67;;;;;;;;;;4846721;29;20076;-85
2023/12/28 09:20:21;;;;;;;10.68;4.07;;;;;;;;;;4876100;29;20053;-86
2023/12/28 09:22:56;;;;;;;12.82;4.30;;;;;;;;;;4861127;29;20053;-87
2023/12/28 09:25:27;;;;;;;10.82;5.03;;;;;;;;;;4862229;29;20446;-82
2023/12/28 09:28:00;;;;;;;9.75;4.43;;;;;;;;;;4845963;29;20206;-83
2023/12/28 09:30:31;;;;;;;10.98;4.03;;;;;;;;;;4863146;29;20053;-83
2023/12/28 09:33:05;;;;;;;11.35;4.40;;;;;;;;;;4862195;29;20068;-82
2023/12/28 09:35:36;;;;;;;9.70;4.13;;;;;;;;;;4845080;29;20060;-86
2023/12/28 09:38:08;;;;;;;12.25;5.40;;;;;;;;;;4862180;29;20052;-83
2023/12/28 09:40:41;;;;;;;11.40;4.25;;;;;;;;;;4862179;29;20050;-82
2023/12/28 09:43:26;;;;;;;11.15;3.40;;;;;;;;;;4859648;29;20068;-82
2023/12/28 09:45:57;;;;;;;13.63;3.45;;;;;;;;;;4875819;29;20054;-84
2023/12/28 09:48:28;;;;;;;11.00;3.92;;;;;;;;;;4876249;29;20049;-82
2023/12/28 09:51:14;;;;;;;13.68;4.57;;;;;;;;;;4861712;29;20402;-83
2023/12/28 09:54:11;;;;;;;12.23;3.60;;;;;;;;;;4818821;29;20546;-82
2023/12/28 09:56:43;;;;;;;15.15;4.75;;;;;;;;;;4806711;29;20074;-81
2023/12/28 09:59:16;;;;;;;11.65;5.55;;;;;;;;;;4811829;29;20411;-82
2023/12/28 10:01:47;;;;;;;8.60;4.00;;;;;;;;;;4823744;29;20057;-83
2023/12/28 10:04:17;;;;;;;15.00;6.25;;;;;;;;;;4839598;29;20047;-82
2023/12/28 10:06:48;;;;;;;18.77;5.32;;;;;;;;;;4825012;29;20058;-82
2023/12/28 10:09:18;;;;;;;14.02;5.10;;;;;;;;;;4805325;29;20051;-81
2023/12/28 10:11:49;;;;;;;15.77;5.85;;;;;;;;;;4804002;29;20054;-81
2023/12/28 10:14:20;;;;;;;13.18;5.60;;;;;;;;;;4834245;29;20454;-82
2023/12/28 10:16:53;;;;;;;14.45;4.78;;;;;;;;;;4824861;29;20063;-82
2023/12/28 10:19:24;;;;;;;8.48;4.45;;;;;;;;;;4837304;29;20541;-81
2023/12/28 10:21:55;;;;;;;12.80;4.55;;;;;;;;;;4822962;29;20054;-83
2023/12/28 10:24:25;;;;;;;15.85;4.70;;;;;;;;;;4807504;29;20066;-82
2023/12/28 10:26:56;;;;;;;12.50;4.70;;;;;;;;;;4804694;29;20058;-81
2023/12/28 10:29:27;;;;;;;17.70;4.45;;;;;;;;;;4816916;29;20058;-81
2023/12/28 10:31:57;;;;;;;10.82;3.83;;;;;;;;;;4850613;29;20509;-81
2023/12/28 10:34:28;;;;;;;9.57;4.18;;;;;;;;;;4843268;29;20049;-85
2023/12/28 10:37:01;;;;;;;9.70;3.88;;;;;;;;;;4860381;29;20045;-84
2023/12/28 10:39:34;;;;;;;12.43;3.08;;;;;;;;;;4874802;29;20053;-84
2023/12/28 10:42:10;;;;;;;11.52;3.80;;;;;;;;;;4861285;29;20493;-83
2023/12/28 10:44:44;;;;;;;12.38;3.63;;;;;;;;;;4843869;29;20049;-81
2023/12/28 10:47:20;;;;;;;6.70;2.72;;;;;;;;;;4858332;29;20053;-83
2023/12/28 10:49:53;;;;;;;8.43;2.00;;;;;;;;;;4858140;29;20406;-81
2023/12/28 10:52:28;;;;;;;4.70;1.80;;;;;;;;;;4860620;29;20053;-84
2023/12/28 10:55:15;;;;;;;3.47;1.48;;;;;;;;;;4842228;29;20505;-79
2023/12/28 10:58:21;;;;;;;5.18;1.70;;;;;;;;;;4843725;29;20066;-81
2023/12/28 11:01:01;;;;;;;6.05;2.50;;;;;;;;;;4839342;29;20062;-81
2023/12/28 11:03:37;;;;;;;6.57;1.70;;;;;;;;;;4859283;29;20094;-81
2023/12/28 11:06:08;;;;;;;5.47;1.58;;;;;;;;;;4872542;29;20064;-81
2023/12/28 11:08:44;;;;;;;3.72;1.55;;;;;;;;;;4859374;29;20049;-86
2023/12/28 11:11:15;;;;;;;6.35;1.60;;;;;;;;;;4840120;29;20069;-80
2023/12/28 11:13:46;;;;;;;4.78;1.45;;;;;;;;;;4847295;29;20054;-79
2023/12/28 11:16:17;;;;;;;3.25;1.40;;;;;;;;;;4856726;29;20050;-80
2023/12/28 11:18:57;;;;;;;4.30;1.40;;;;;;;;;;4881062;29;20497;-84
2023/12/28 11:21:53;;;;;;;9.00;1.60;;;;;;;;;;4856040;29;20057;-80
2023/12/28 11:24:24;;;;;;;;;;;;;;;;;;4859143;29;20057;-84
2023/12/28 11:27:01;;;;;;;4.72;1.45;;;;;;;;;;4872647;29;19935;-80
2023/12/28 11:29:35;;;;;;;4.63;1.63;;;;;;;;;;4873425;29;20079;-81
2023/12/28 11:32:12;;;;;;;4.55;1.65;;;;;;;;;;4872286;29;20061;-82
2023/12/28 11:34:46;;;;;;;4.45;1.40;;;;;;;;;;4872106;29;20052;-81
2023/12/28 11:37:27;;;;;;;3.80;1.65;;;;;;;;;;4857855;29;20080;-81
2023/12/28 11:40:02;;;;;;;;;;;;;;;;;;4823492;29;20157;-82
2023/12/28 11:42:47;;;;;;;5.57;1.40;;;;;;;;;;4852804;29;19931;-82
2023/12/28 11:45:22;;;;;;;3.42;1.50;;;;;;;;;;4837139;29;20053;-84
2023/12/28 11:48:01;;;;;;;3.20;1.10;;;;;;;;;;4844486;29;20382;-81
2023/12/28 11:50:33;;;;;;;3.92;1.50;;;;;;;;;;4857941;29;20072;-82
2023/12/28 11:53:05;;;;;;;4.03;1.50;;;;;;;;;;4843115;29;20054;-82
2023/12/28 11:55:45;;;;;;;4.55;1.50;;;;;;;;;;4859383;29;20045;-82
2023/12/28 11:58:18;;;;;;;3.25;1.20;;;;;;;;;;4859555;29;20061;-83
2023/12/28 12:00:48;;;;;;;5.50;1.48;;;;;;;;;;4843496;29;20052;-81
2023/12/28 12:03:20;;;;;;;5.45;1.65;;;;;;;;;;4842578;29;20060;-86
2023/12/28 12:05:54;;;;;;;6.78;1.35;;;;;;;;;;4860112;29;20053;-83
2023/12/28 12:08:27;;;;;;;4.57;1.13;;;;;;;;;;4856615;29;20065;-83
2023/12/28 12:11:10;;;;;;;4.32;1.20;;;;;;;;;;4858194;29;20061;-83
2023/12/28 12:13:41;;;;;;;4.85;0.80;;;;;;;;;;4860179;29;20077;-81
2023/12/28 12:16:16;;;;;;;2.55;0.90;;;;;;;;;;4862443;29;20052;-82
2023/12/28 12:18:52;;;;;;;4.10;0.90;;;;;;;;;;4860443;29;20041;-86
2023/12/28 12:21:30;;;;;;;2.58;0.80;;;;;;;;;;4860549;29;20050;-83
2023/12/28 12:24:11;;;;;;;3.83;1.15;;;;;;;;;;4875334;29;20049;-83
2023/12/28 12:26:42;;;;;;;3.17;0.80;;;;;;;;;;4861453;29;20080;-84
2023/12/28 12:29:20;;;;;;;5.22;1.13;;;;;;;;;;4876260;29;20046;-84
2023/12/28 12:31:59;;;;;;;3.28;1.00;;;;;;;;;;4991390;23;20059;-84
2023/12/28 12:34:40;;;;;;;7.97;1.10;;;;;;;;;;4957349;29;20040;-82
2023/12/28 12:37:36;;;;;;;6.97;1.05;;;;;;;;;;4954294;28;20062;-81
2023/12/28 12:40:15;;;;;;;2.60;0.90;;;;;;;;;;4918259;29;20067;-83
2023/12/28 12:42:56;;;;;;;3.13;0.95;;;;;;;;;;4935382;29;20063;-83
2023/12/28 12:45:27;;;;;;;2.80;0.90;;;;;;;;;;4935970;29;20063;-85
2023/12/28 12:48:04;;;;;;;3.28;1.05;;;;;;;;;;4942035;29;20051;-83
2023/12/28 12:50:40;;;;;;;3.38;0.93;;;;;;;;;;5011885;23;20066;-82
2023/12/28 12:53:11;;;;;;;;;;;;;;;;;;4918815;29;20062;-81
2023/12/28 12:55:45;;;;;;;6.57;0.90;;;;;;;;;;4939134;29;19922;-80
2023/12/28 12:58:17;;;;;;;3.40;0.80;;;;;;;;;;4955975;29;20047;-81
2023/12/28 13:00:47;;;;;;;3.75;1.30;;;;;;;;;;4955965;29;20058;-84
2023/12/28 13:03:19;;;;;;;3.92;1.02;;;;;;;;;;4955626;29;20525;-83
2023/12/28 13:05:50;;;;;;;2.88;0.90;;;;;;;;;;4955168;29;20506;-82
2023/12/28 13:08:20;;;;;;;2.20;0.85;;;;;;;;;;4935622;29;20078;-81
2023/12/28 13:10:50;;;;;;;2.85;1.15;;;;;;;;;;4938494;29;20055;-84
2023/12/28 13:13:20;;;;;;;3.58;0.88;;;;;;;;;;4955567;29;20044;-82
2023/12/28 13:15:50;;;;;;;6.03;1.08;;;;;;;;;;4955309;29;20051;-79
2023/12/28 13:18:20;;;;;;;3.22;1.02;;;;;;;;;;4954944;29;20047;-83
2023/12/28 13:20:50;;;;;;;2.78;1.15;;;;;;;;;;4954841;29;20398;-84
2023/12/28 13:23:20;;;;;;;3.17;1.08;;;;;;;;;;4954047;28;20051;-82
2023/12/28 13:25:51;;;;;;;6.75;1.40;;;;;;;;;;4955391;29;20043;-81
2023/12/28 13:28:21;;;;;;;4.68;1.33;;;;;;;;;;4955054;29;20401;-82
2023/12/28 13:30:55;;;;;;;4.50;1.23;;;;;;;;;;4937294;29;20070;-82
2023/12/28 13:33:26;;;;;;;6.28;2.17;;;;;;;;;;4936943;29;20047;-80
2023/12/28 13:35:56;;;;;;;5.82;1.23;;;;;;;;;;4954062;29;20529;-81
2023/12/28 13:38:27;;;;;;;6.32;1.42;;;;;;;;;;4954453;29;20418;-81
2023/12/28 13:40:57;;;;;;;4.55;0.90;;;;;;;;;;4954695;29;20070;-83
2023/12/28 13:43:27;;;;;;;3.88;1.27;;;;;;;;;;4938110;29;20047;-83
2023/12/28 13:45:57;;;;;;;3.13;0.93;;;;;;;;;;4936196;29;20422;-82
2023/12/28 13:48:27;;;;;;;2.40;1.13;;;;;;;;;;4952758;29;20520;-82
2023/12/28 13:50:57;;;;;;;2.53;0.98;;;;;;;;;;4952793;29;20491;-85
2023/12/28 13:53:27;;;;;;;6.95;1.00;;;;;;;;;;4952876;28;20066;-82
2023/12/28 13:55:57;;;;;;;4.95;0.88;;;;;;;;;;4952615;29;20086;-82
2023/12/28 13:58:27;;;;;;;3.25;1.10;;;;;;;;;;4952834;29;20054;-81
2023/12/28 14:00:57;;;;;;;4.45;1.42;;;;;;;;;;4966762;28;20078;-85
2023/12/28 14:03:27;;;;;;;2.75;0.95;;;;;;;;;;4952612;29;20047;-84
2023/12/28 14:05:59;;;;;;;3.28;0.95;;;;;;;;;;4950941;28;20134;-82
2023/12/28 14:08:30;;;;;;;2.75;0.90;;;;;;;;;;4952566;28;20058;-83
2023/12/28 14:11:02;;;;;;;5.88;1.15;;;;;;;;;;4935176;29;20051;-81
2023/12/28 14:13:36;;;;;;;2.42;1.00;;;;;;;;;;4951465;28;20050;-82
2023/12/28 14:16:08;;;;;;;3.42;1.20;;;;;;;;;;4935672;29;20066;-84
2023/12/28 14:18:41;;;;;;;4.63;1.13;;;;;;;;;;4952795;29;20534;-82
2023/12/28 14:21:15;;;;;;;2.72;0.80;;;;;;;;;;4946529;29;20063;-85
2023/12/28 14:23:46;;;;;;;1.35;0.90;;;;;;;;;;4935813;28;20043;-83
2023/12/28 14:26:17;;;;;;;2.67;1.10;;;;;;;;;;4951208;29;20518;-87
2023/12/28 14:28:47;;;;;;;1.70;0.70;;;;;;;;;;4952187;28;20055;-82
2023/12/28 14:31:19;;;;;;;2.47;0.85;;;;;;;;;;4953271;28;20434;-82
2023/12/28 14:33:49;;;;;;;2.05;0.80;;;;;;;;;;4967096;28;20067;-84
2023/12/28 14:36:34;;;;;;;2.55;0.95;;;;;;;;;;4951777;28;20043;-82
2023/12/28 14:39:06;;;;;;;2.03;0.88;;;;;;;;;;4934935;29;20055;-84
2023/12/28 14:41:38;;;;;;;8.65;4.25;;;;;;;;;;4952995;29;20058;-82
2023/12/28 14:44:12;;;;;;;2.88;1.00;;;;;;;;;;4935469;29;20529;-86
2023/12/28 14:46:43;;;;;;;1.67;0.90;;;;;;;;;;4950985;29;20069;-85
2023/12/28 14:49:13;;;;;;;2.03;0.90;;;;;;;;;;4952315;29;20058;-83
2023/12/28 14:51:44;;;;;;;3.45;1.20;;;;;;;;;;4952769;29;20043;-86
2023/12/28 14:54:14;;;;;;;2.30;0.90;;;;;;;;;;4935049;29;20059;-85
2023/12/28 14:56:45;;;;;;;4.78;1.10;;;;;;;;;;4952535;29;20043;-83
2023/12/28 14:59:23;;;;;;;1.42;0.90;;;;;;;;;;4936423;29;20051;-82
2023/12/28 15:01:53;;;;;;;1.98;0.80;;;;;;;;;;4952452;29;20055;-83
2023/12/28 15:04:23;;;;;;;4.00;0.90;;;;;;;;;;4919375;29;20498;-84
2023/12/28 15:06:55;;;;;;;2.92;0.80;;;;;;;;;;4952307;29;20398;-84
2023/12/28 15:09:25;;;;;;;2.15;1.00;;;;;;;;;;4951390;28;20059;-82
2023/12/28 15:11:55;;;;;;;3.58;1.15;;;;;;;;;;4949711;28;20051;-83
2023/12/28 15:14:26;;;;;;;7.28;0.98;;;;;;;;;;4952225;28;20506;-85
2023/12/28 15:16:57;;;;;;;1.83;0.80;;;;;;;;;;4935782;29;20071;-85
2023/12/28 15:19:31;;;;;;;2.25;1.33;;;;;;;;;;4950913;28;20414;-84
2023/12/28 15:22:02;;;;;;;2.80;0.77;;;;;;;;;;4953166;29;20138;-85
2023/12/28 15:24:33;;;;;;;4.03;1.05;;;;;;;;;;4952021;28;20060;-85